sensor_id;sensor_type;location;lat;lon;timestamp;P1;durP1;ratioP1;P2;durP2;ratioP2
69847;SDS011;57143;55.940;37.496;2022-12-11T00:01:39;7.43;;;2.50;;
69847;SDS011;57143;55.940;37.496;2022-12-11T00:04:08;7.63;;;2.50;;
69847;SDS011;57143;55.940;37.496;2022-12-11T00:06:35;8.48;;;2.80;;
69847;SDS011;57143;55.940;37.496;2022-12-11T00:09:04;7.53;;;2.40;;
69847;SDS011;57143;55.940;37.496;2022-12-11T00:11:31;9.57;;;2.80;;
69847;SDS011;57143;55.940;37.496;2022-12-11T00:13:58;8.00;;;2.22;;
69847;SDS011;57143;55.940;37.496;2022-12-11T00:16:25;7.37;;;2.40;;
69847;SDS011;57143;55.940;37.496;2022-12-11T00:18:52;7.85;;;2.55;;
69847;SDS011;57143;55.940;37.496;2022-12-11T00:21:19;8.40;;;2.42;;
69847;SDS011;57143;55.940;37.496;2022-12-11T00:23:46;8.63;;;2.65;;
69847;SDS011;57143;55.940;37.496;2022-12-11T00:26:15;7.88;;;2.53;;
69847;SDS011;57143;55.940;37.496;2022-12-11T00:28:43;7.60;;;2.67;;
69847;SDS011;57143;55.940;37.496;2022-12-11T00:31:12;7.18;;;2.40;;
69847;SDS011;57143;55.940;37.496;2022-12-11T00:33:40;8.45;;;2.88;;
69847;SDS011;57143;55.940;37.496;2022-12-11T00:36:09;10.07;;;3.00;;
69847;SDS011;57143;55.940;37.496;2022-12-11T00:38:38;7.82;;;2.70;;
69847;SDS011;57143;55.940;37.496;2022-12-11T00:41:05;7.30;;;2.20;;
69847;SDS011;57143;55.940;37.496;2022-12-11T00:43:34;8.55;;;2.50;;
69847;SDS011;57143;55.940;37.496;2022-12-11T00:46:01;7.55;;;2.47;;
69847;SDS011;57143;55.940;37.496;2022-12-11T00:48:29;8.05;;;2.80;;
69847;SDS011;57143;55.940;37.496;2022-12-11T00:50:56;7.43;;;2.50;;
69847;SDS011;57143;55.940;37.496;2022-12-11T00:53:23;8.47;;;2.30;;
69847;SDS011;57143;55.940;37.496;2022-12-11T00:55:50;9.65;;;2.58;;
69847;SDS011;57143;55.940;37.496;2022-12-11T00:58:18;8.05;;;2.67;;
69847;SDS011;57143;55.940;37.496;2022-12-11T01:00:46;7.38;;;2.42;;
69847;SDS011;57143;55.940;37.496;2022-12-11T01:03:14;8.25;;;2.38;;
69847;SDS011;57143;55.940;37.496;2022-12-11T01:05:49;8.63;;;2.70;;
69847;SDS011;57143;55.940;37.496;2022-12-11T01:08:18;6.70;;;1.90;;
69847;SDS011;57143;55.940;37.496;2022-12-11T01:10:45;8.70;;;2.45;;
69847;SDS011;57143;55.940;37.496;2022-12-11T01:13:11;8.20;;;2.60;;
69847;SDS011;57143;55.940;37.496;2022-12-11T01:15:39;8.43;;;3.03;;
69847;SDS011;57143;55.940;37.496;2022-12-11T01:18:09;6.73;;;2.43;;
69847;SDS011;57143;55.940;37.496;2022-12-11T01:20:38;10.40;;;2.65;;
69847;SDS011;57143;55.940;37.496;2022-12-11T01:23:06;7.30;;;2.55;;
69847;SDS011;57143;55.940;37.496;2022-12-11T01:25:34;8.07;;;2.60;;
69847;SDS011;57143;55.940;37.496;2022-12-11T01:28:03;7.97;;;2.80;;
69847;SDS011;57143;55.940;37.496;2022-12-11T01:30:31;6.73;;;2.13;;
69847;SDS011;57143;55.940;37.496;2022-12-11T01:33:00;9.68;;;2.13;;
69847;SDS011;57143;55.940;37.496;2022-12-11T01:35:28;7.85;;;2.28;;
69847;SDS011;57143;55.940;37.496;2022-12-11T01:37:55;6.88;;;2.38;;
69847;SDS011;57143;55.940;37.496;2022-12-11T01:40:23;7.25;;;2.63;;
69847;SDS011;57143;55.940;37.496;2022-12-11T01:42:50;9.57;;;2.60;;
69847;SDS011;57143;55.940;37.496;2022-12-11T01:45:29;10.88;;;2.88;;
69847;SDS011;57143;55.940;37.496;2022-12-11T01:48:00;9.80;;;2.20;;
69847;SDS011;57143;55.940;37.496;2022-12-11T01:50:33;7.32;;;2.00;;
69847;SDS011;57143;55.940;37.496;2022-12-11T01:53:05;7.95;;;2.83;;
69847;SDS011;57143;55.940;37.496;2022-12-11T01:55:34;9.43;;;3.37;;
69847;SDS011;57143;55.940;37.496;2022-12-11T01:58:04;9.90;;;3.47;;
69847;SDS011;57143;55.940;37.496;2022-12-11T02:00:33;9.60;;;3.10;;
69847;SDS011;57143;55.940;37.496;2022-12-11T02:03:01;8.90;;;2.67;;
69847;SDS011;57143;55.940;37.496;2022-12-11T02:05:28;8.43;;;2.88;;
69847;SDS011;57143;55.940;37.496;2022-12-11T02:07:57;9.10;;;3.23;;
69847;SDS011;57143;55.940;37.496;2022-12-11T02:10:31;8.95;;;2.67;;
69847;SDS011;57143;55.940;37.496;2022-12-11T02:13:11;8.23;;;2.72;;
69847;SDS011;57143;55.940;37.496;2022-12-11T02:15:45;9.55;;;2.83;;
69847;SDS011;57143;55.940;37.496;2022-12-11T02:18:18;10.65;;;3.10;;
69847;SDS011;57143;55.940;37.496;2022-12-11T02:20:52;10.70;;;2.57;;
69847;SDS011;57143;55.940;37.496;2022-12-11T02:23:32;8.85;;;2.35;;
69847;SDS011;57143;55.940;37.496;2022-12-11T02:26:19;9.43;;;3.60;;
69847;SDS011;57143;55.940;37.496;2022-12-11T02:29:00;13.27;;;4.03;;
69847;SDS011;57143;55.940;37.496;2022-12-11T02:31:33;5.80;;;2.05;;
69847;SDS011;57143;55.940;37.496;2022-12-11T02:34:06;14.23;;;4.27;;
69847;SDS011;57143;55.940;37.496;2022-12-11T02:36:37;16.17;;;3.00;;
69847;SDS011;57143;55.940;37.496;2022-12-11T02:39:08;8.73;;;3.17;;
69847;SDS011;57143;55.940;37.496;2022-12-11T02:41:38;14.05;;;4.28;;
69847;SDS011;57143;55.940;37.496;2022-12-11T02:44:10;15.90;;;3.50;;
69847;SDS011;57143;55.940;37.496;2022-12-11T02:46:40;9.10;;;3.33;;
69847;SDS011;57143;55.940;37.496;2022-12-11T02:49:10;9.40;;;2.58;;
69847;SDS011;57143;55.940;37.496;2022-12-11T02:51:39;11.20;;;4.30;;
69847;SDS011;57143;55.940;37.496;2022-12-11T02:54:08;10.98;;;3.85;;
69847;SDS011;57143;55.940;37.496;2022-12-11T02:56:39;8.98;;;3.15;;
69847;SDS011;57143;55.940;37.496;2022-12-11T02:59:14;15.37;;;4.23;;
69847;SDS011;57143;55.940;37.496;2022-12-11T03:01:44;14.82;;;4.20;;
69847;SDS011;57143;55.940;37.496;2022-12-11T03:04:12;13.20;;;3.97;;
69847;SDS011;57143;55.940;37.496;2022-12-11T03:06:41;7.35;;;2.50;;
69847;SDS011;57143;55.940;37.496;2022-12-11T03:09:12;12.98;;;4.53;;
69847;SDS011;57143;55.940;37.496;2022-12-11T03:11:40;10.73;;;4.00;;
69847;SDS011;57143;55.940;37.496;2022-12-11T03:14:07;12.48;;;3.83;;
69847;SDS011;57143;55.940;37.496;2022-12-11T03:16:36;13.77;;;4.10;;
69847;SDS011;57143;55.940;37.496;2022-12-11T03:19:09;22.77;;;6.22;;
69847;SDS011;57143;55.940;37.496;2022-12-11T03:21:44;16.45;;;6.00;;
69847;SDS011;57143;55.940;37.496;2022-12-11T03:24:17;12.57;;;4.60;;
69847;SDS011;57143;55.940;37.496;2022-12-11T03:26:49;14.13;;;4.68;;
69847;SDS011;57143;55.940;37.496;2022-12-11T03:29:22;16.50;;;6.00;;
69847;SDS011;57143;55.940;37.496;2022-12-11T03:31:54;20.42;;;4.63;;
69847;SDS011;57143;55.940;37.496;2022-12-11T03:34:26;14.95;;;4.72;;
69847;SDS011;57143;55.940;37.496;2022-12-11T03:36:57;13.90;;;4.13;;
69847;SDS011;57143;55.940;37.496;2022-12-11T03:39:28;14.10;;;5.00;;
69847;SDS011;57143;55.940;37.496;2022-12-11T03:41:57;13.68;;;4.05;;
69847;SDS011;57143;55.940;37.496;2022-12-11T03:44:27;11.45;;;3.80;;
69847;SDS011;57143;55.940;37.496;2022-12-11T03:46:59;15.43;;;4.32;;
69847;SDS011;57143;55.940;37.496;2022-12-11T03:49:31;17.40;;;4.77;;
69847;SDS011;57143;55.940;37.496;2022-12-11T03:52:02;18.05;;;5.55;;
69847;SDS011;57143;55.940;37.496;2022-12-11T03:54:31;17.75;;;4.65;;
69847;SDS011;57143;55.940;37.496;2022-12-11T03:57:00;16.48;;;4.97;;
69847;SDS011;57143;55.940;37.496;2022-12-11T03:59:29;16.63;;;5.22;;
69847;SDS011;57143;55.940;37.496;2022-12-11T04:01:56;15.30;;;4.67;;
69847;SDS011;57143;55.940;37.496;2022-12-11T04:04:25;16.38;;;4.45;;
69847;SDS011;57143;55.940;37.496;2022-12-11T04:06:52;13.88;;;4.75;;
69847;SDS011;57143;55.940;37.496;2022-12-11T04:09:19;16.60;;;4.88;;
69847;SDS011;57143;55.940;37.496;2022-12-11T04:11:47;13.05;;;4.22;;
69847;SDS011;57143;55.940;37.496;2022-12-11T04:14:14;14.73;;;4.80;;
69847;SDS011;57143;55.940;37.496;2022-12-11T04:17:00;15.38;;;4.53;;
69847;SDS011;57143;55.940;37.496;2022-12-11T04:19:27;30.98;;;6.32;;
69847;SDS011;57143;55.940;37.496;2022-12-11T04:22:11;15.02;;;4.43;;
69847;SDS011;57143;55.940;37.496;2022-12-11T04:24:57;15.40;;;3.60;;
69847;SDS011;57143;55.940;37.496;2022-12-11T04:27:24;44.30;;;6.23;;
69847;SDS011;57143;55.940;37.496;2022-12-11T04:30:10;21.23;;;5.72;;
69847;SDS011;57143;55.940;37.496;2022-12-11T04:32:41;22.58;;;5.00;;
69847;SDS011;57143;55.940;37.496;2022-12-11T04:35:08;9.75;;;2.80;;
69847;SDS011;57143;55.940;37.496;2022-12-11T04:37:37;27.15;;;5.50;;
69847;SDS011;57143;55.940;37.496;2022-12-11T04:40:05;22.77;;;5.43;;
69847;SDS011;57143;55.940;37.496;2022-12-11T04:42:34;29.10;;;5.40;;
69847;SDS011;57143;55.940;37.496;2022-12-11T04:45:01;20.70;;;5.10;;
69847;SDS011;57143;55.940;37.496;2022-12-11T04:47:29;19.23;;;4.68;;
69847;SDS011;57143;55.940;37.496;2022-12-11T04:49:57;14.40;;;4.40;;
69847;SDS011;57143;55.940;37.496;2022-12-11T04:52:25;32.90;;;5.30;;
69847;SDS011;57143;55.940;37.496;2022-12-11T04:54:52;13.80;;;3.95;;
69847;SDS011;57143;55.940;37.496;2022-12-11T04:57:19;21.85;;;5.05;;
69847;SDS011;57143;55.940;37.496;2022-12-11T04:59:46;45.63;;;6.47;;
69847;SDS011;57143;55.940;37.496;2022-12-11T05:02:14;17.35;;;4.93;;
69847;SDS011;57143;55.940;37.496;2022-12-11T05:04:41;26.17;;;4.73;;
69847;SDS011;57143;55.940;37.496;2022-12-11T05:07:10;24.25;;;5.43;;
69847;SDS011;57143;55.940;37.496;2022-12-11T05:09:37;27.05;;;5.20;;
69847;SDS011;57143;55.940;37.496;2022-12-11T05:12:04;25.10;;;4.95;;
69847;SDS011;57143;55.940;37.496;2022-12-11T05:14:31;32.25;;;5.25;;
69847;SDS011;57143;55.940;37.496;2022-12-11T05:16:59;17.27;;;4.67;;
69847;SDS011;57143;55.940;37.496;2022-12-11T05:19:26;11.35;;;3.90;;
69847;SDS011;57143;55.940;37.496;2022-12-11T05:21:53;16.63;;;4.80;;
69847;SDS011;57143;55.940;37.496;2022-12-11T05:24:21;18.95;;;6.15;;
69847;SDS011;57143;55.940;37.496;2022-12-11T05:26:49;27.55;;;5.18;;
69847;SDS011;57143;55.940;37.496;2022-12-11T05:29:16;22.90;;;5.87;;
69847;SDS011;57143;55.940;37.496;2022-12-11T05:31:43;25.25;;;5.95;;
69847;SDS011;57143;55.940;37.496;2022-12-11T05:34:10;22.25;;;5.55;;
69847;SDS011;57143;55.940;37.496;2022-12-11T05:36:37;9.02;;;3.38;;
69847;SDS011;57143;55.940;37.496;2022-12-11T05:39:05;14.25;;;4.15;;
69847;SDS011;57143;55.940;37.496;2022-12-11T05:41:33;18.00;;;4.87;;
69847;SDS011;57143;55.940;37.496;2022-12-11T05:44:00;14.00;;;4.80;;
69847;SDS011;57143;55.940;37.496;2022-12-11T05:46:28;16.35;;;5.15;;
69847;SDS011;57143;55.940;37.496;2022-12-11T05:48:57;19.75;;;5.70;;
69847;SDS011;57143;55.940;37.496;2022-12-11T05:51:25;16.25;;;4.55;;
69847;SDS011;57143;55.940;37.496;2022-12-11T05:53:53;15.07;;;5.40;;
69847;SDS011;57143;55.940;37.496;2022-12-11T05:56:21;21.13;;;5.78;;
69847;SDS011;57143;55.940;37.496;2022-12-11T05:58:52;23.15;;;6.10;;
69847;SDS011;57143;55.940;37.496;2022-12-11T06:01:21;16.75;;;5.13;;
69847;SDS011;57143;55.940;37.496;2022-12-11T06:03:49;10.35;;;3.33;;
69847;SDS011;57143;55.940;37.496;2022-12-11T06:06:17;11.83;;;3.67;;
69847;SDS011;57143;55.940;37.496;2022-12-11T06:08:44;17.08;;;5.13;;
69847;SDS011;57143;55.940;37.496;2022-12-11T06:11:11;17.17;;;5.38;;
69847;SDS011;57143;55.940;37.496;2022-12-11T06:13:39;14.77;;;5.25;;
69847;SDS011;57143;55.940;37.496;2022-12-11T06:16:08;11.57;;;4.30;;
69847;SDS011;57143;55.940;37.496;2022-12-11T06:18:35;11.70;;;3.83;;
69847;SDS011;57143;55.940;37.496;2022-12-11T06:21:09;11.60;;;3.83;;
69847;SDS011;57143;55.940;37.496;2022-12-11T06:23:40;13.40;;;4.70;;
69847;SDS011;57143;55.940;37.496;2022-12-11T06:26:07;15.05;;;4.72;;
69847;SDS011;57143;55.940;37.496;2022-12-11T06:28:35;9.32;;;2.67;;
69847;SDS011;57143;55.940;37.496;2022-12-11T06:31:02;16.80;;;5.87;;
69847;SDS011;57143;55.940;37.496;2022-12-11T06:33:31;12.02;;;4.35;;
69847;SDS011;57143;55.940;37.496;2022-12-11T06:36:00;13.00;;;5.03;;
69847;SDS011;57143;55.940;37.496;2022-12-11T06:38:28;14.80;;;4.57;;
69847;SDS011;57143;55.940;37.496;2022-12-11T06:40:55;12.13;;;4.20;;
69847;SDS011;57143;55.940;37.496;2022-12-11T06:43:23;17.70;;;5.03;;
69847;SDS011;57143;55.940;37.496;2022-12-11T06:45:50;14.63;;;5.10;;
69847;SDS011;57143;55.940;37.496;2022-12-11T06:48:18;20.83;;;5.90;;
69847;SDS011;57143;55.940;37.496;2022-12-11T06:50:47;15.65;;;5.05;;
69847;SDS011;57143;55.940;37.496;2022-12-11T06:53:14;13.40;;;5.00;;
69847;SDS011;57143;55.940;37.496;2022-12-11T06:55:41;13.07;;;4.57;;
69847;SDS011;57143;55.940;37.496;2022-12-11T06:58:09;15.20;;;5.72;;
69847;SDS011;57143;55.940;37.496;2022-12-11T07:00:37;10.30;;;3.72;;
69847;SDS011;57143;55.940;37.496;2022-12-11T07:03:04;15.02;;;4.95;;
69847;SDS011;57143;55.940;37.496;2022-12-11T07:05:32;13.43;;;5.32;;
69847;SDS011;57143;55.940;37.496;2022-12-11T07:08:01;14.20;;;4.00;;
69847;SDS011;57143;55.940;37.496;2022-12-11T07:10:28;13.98;;;4.53;;
69847;SDS011;57143;55.940;37.496;2022-12-11T07:12:55;14.90;;;4.30;;
69847;SDS011;57143;55.940;37.496;2022-12-11T07:15:22;11.18;;;4.43;;
69847;SDS011;57143;55.940;37.496;2022-12-11T07:17:49;12.40;;;4.10;;
69847;SDS011;57143;55.940;37.496;2022-12-11T07:20:16;13.80;;;4.20;;
69847;SDS011;57143;55.940;37.496;2022-12-11T07:22:43;12.65;;;4.65;;
69847;SDS011;57143;55.940;37.496;2022-12-11T07:25:15;14.52;;;3.67;;
69847;SDS011;57143;55.940;37.496;2022-12-11T07:27:42;15.07;;;4.80;;
69847;SDS011;57143;55.940;37.496;2022-12-11T07:30:10;15.50;;;4.88;;
69847;SDS011;57143;55.940;37.496;2022-12-11T07:32:38;14.70;;;4.57;;
69847;SDS011;57143;55.940;37.496;2022-12-11T07:35:05;12.18;;;3.95;;
69847;SDS011;57143;55.940;37.496;2022-12-11T07:37:33;10.15;;;4.28;;
69847;SDS011;57143;55.940;37.496;2022-12-11T07:40:00;11.48;;;3.60;;
69847;SDS011;57143;55.940;37.496;2022-12-11T07:42:30;12.90;;;4.18;;
69847;SDS011;57143;55.940;37.496;2022-12-11T07:44:57;10.33;;;3.63;;
69847;SDS011;57143;55.940;37.496;2022-12-11T07:47:24;10.90;;;3.53;;
69847;SDS011;57143;55.940;37.496;2022-12-11T07:49:51;13.98;;;4.82;;
69847;SDS011;57143;55.940;37.496;2022-12-11T07:52:19;12.95;;;4.65;;
69847;SDS011;57143;55.940;37.496;2022-12-11T07:54:46;17.50;;;5.68;;
69847;SDS011;57143;55.940;37.496;2022-12-11T07:57:13;12.27;;;4.17;;
69847;SDS011;57143;55.940;37.496;2022-12-11T07:59:41;13.63;;;4.22;;
69847;SDS011;57143;55.940;37.496;2022-12-11T08:02:09;14.50;;;4.50;;
69847;SDS011;57143;55.940;37.496;2022-12-11T08:04:36;13.95;;;5.03;;
69847;SDS011;57143;55.940;37.496;2022-12-11T08:07:03;13.10;;;3.70;;
69847;SDS011;57143;55.940;37.496;2022-12-11T08:09:31;11.20;;;3.97;;
69847;SDS011;57143;55.940;37.496;2022-12-11T08:11:58;12.45;;;4.28;;
69847;SDS011;57143;55.940;37.496;2022-12-11T08:14:25;16.25;;;6.05;;
69847;SDS011;57143;55.940;37.496;2022-12-11T08:16:54;12.80;;;4.13;;
69847;SDS011;57143;55.940;37.496;2022-12-11T08:19:25;13.38;;;4.53;;
69847;SDS011;57143;55.940;37.496;2022-12-11T08:21:52;12.90;;;4.77;;
69847;SDS011;57143;55.940;37.496;2022-12-11T08:24:19;11.80;;;4.05;;
69847;SDS011;57143;55.940;37.496;2022-12-11T08:26:46;14.77;;;3.80;;
69847;SDS011;57143;55.940;37.496;2022-12-11T08:29:14;19.27;;;4.30;;
69847;SDS011;57143;55.940;37.496;2022-12-11T08:31:41;14.68;;;4.57;;
69847;SDS011;57143;55.940;37.496;2022-12-11T08:34:10;13.33;;;4.90;;
69847;SDS011;57143;55.940;37.496;2022-12-11T08:36:38;13.73;;;5.40;;
69847;SDS011;57143;55.940;37.496;2022-12-11T08:39:06;10.02;;;3.97;;
69847;SDS011;57143;55.940;37.496;2022-12-11T08:41:33;11.77;;;4.28;;
69847;SDS011;57143;55.940;37.496;2022-12-11T08:44:00;14.38;;;4.90;;
69847;SDS011;57143;55.940;37.496;2022-12-11T08:46:28;15.67;;;4.07;;
69847;SDS011;57143;55.940;37.496;2022-12-11T08:48:56;12.27;;;4.07;;
69847;SDS011;57143;55.940;37.496;2022-12-11T08:51:27;12.15;;;4.30;;
69847;SDS011;57143;55.940;37.496;2022-12-11T08:53:55;9.52;;;3.40;;
69847;SDS011;57143;55.940;37.496;2022-12-11T08:56:24;18.27;;;5.85;;
69847;SDS011;57143;55.940;37.496;2022-12-11T08:58:52;13.90;;;5.07;;
69847;SDS011;57143;55.940;37.496;2022-12-11T09:01:23;10.45;;;3.15;;
69847;SDS011;57143;55.940;37.496;2022-12-11T09:03:52;11.68;;;4.20;;
69847;SDS011;57143;55.940;37.496;2022-12-11T09:06:21;11.23;;;4.38;;
69847;SDS011;57143;55.940;37.496;2022-12-11T09:08:51;11.75;;;3.88;;
69847;SDS011;57143;55.940;37.496;2022-12-11T09:11:21;15.70;;;3.60;;
69847;SDS011;57143;55.940;37.496;2022-12-11T09:13:50;8.85;;;2.35;;
69847;SDS011;57143;55.940;37.496;2022-12-11T09:16:18;11.50;;;4.45;;
69847;SDS011;57143;55.940;37.496;2022-12-11T09:18:47;11.75;;;4.45;;
69847;SDS011;57143;55.940;37.496;2022-12-11T09:21:18;13.40;;;4.65;;
69847;SDS011;57143;55.940;37.496;2022-12-11T09:24:12;11.50;;;4.17;;
69847;SDS011;57143;55.940;37.496;2022-12-11T09:26:40;11.15;;;4.38;;
69847;SDS011;57143;55.940;37.496;2022-12-11T09:29:09;11.73;;;4.15;;
69847;SDS011;57143;55.940;37.496;2022-12-11T09:31:37;10.95;;;3.78;;
69847;SDS011;57143;55.940;37.496;2022-12-11T09:34:06;16.05;;;4.40;;
69847;SDS011;57143;55.940;37.496;2022-12-11T09:36:39;17.77;;;5.13;;
69847;SDS011;57143;55.940;37.496;2022-12-11T09:39:16;11.10;;;3.88;;
69847;SDS011;57143;55.940;37.496;2022-12-11T09:41:56;10.82;;;4.35;;
69847;SDS011;57143;55.940;37.496;2022-12-11T09:44:41;12.60;;;4.80;;
69847;SDS011;57143;55.940;37.496;2022-12-11T09:47:22;13.43;;;5.00;;
69847;SDS011;57143;55.940;37.496;2022-12-11T09:49:55;14.67;;;5.07;;
69847;SDS011;57143;55.940;37.496;2022-12-11T09:52:33;15.02;;;5.80;;
69847;SDS011;57143;55.940;37.496;2022-12-11T09:55:12;17.40;;;6.60;;
69847;SDS011;57143;55.940;37.496;2022-12-11T09:58:05;12.02;;;4.30;;
69847;SDS011;57143;55.940;37.496;2022-12-11T10:00:52;14.27;;;4.65;;
69847;SDS011;57143;55.940;37.496;2022-12-11T10:03:37;16.27;;;4.40;;
69847;SDS011;57143;55.940;37.496;2022-12-11T10:06:15;9.82;;;3.45;;
69847;SDS011;57143;55.940;37.496;2022-12-11T10:08:50;12.18;;;4.40;;
69847;SDS011;57143;55.940;37.496;2022-12-11T10:11:34;12.15;;;4.40;;
69847;SDS011;57143;55.940;37.496;2022-12-11T10:14:12;12.05;;;3.47;;
69847;SDS011;57143;55.940;37.496;2022-12-11T10:16:47;12.70;;;4.17;;
69847;SDS011;57143;55.940;37.496;2022-12-11T10:19:18;12.65;;;4.38;;
69847;SDS011;57143;55.940;37.496;2022-12-11T10:21:48;11.48;;;4.03;;
69847;SDS011;57143;55.940;37.496;2022-12-11T10:24:17;10.20;;;4.07;;
69847;SDS011;57143;55.940;37.496;2022-12-11T10:26:51;12.10;;;4.38;;
69847;SDS011;57143;55.940;37.496;2022-12-11T10:29:22;12.37;;;3.57;;
69847;SDS011;57143;55.940;37.496;2022-12-11T10:31:51;10.35;;;3.45;;
69847;SDS011;57143;55.940;37.496;2022-12-11T10:34:24;15.82;;;5.05;;
69847;SDS011;57143;55.940;37.496;2022-12-11T10:36:58;16.35;;;4.80;;
69847;SDS011;57143;55.940;37.496;2022-12-11T10:39:26;12.07;;;4.05;;
69847;SDS011;57143;55.940;37.496;2022-12-11T10:41:56;15.87;;;5.33;;
69847;SDS011;57143;55.940;37.496;2022-12-11T10:44:26;12.25;;;4.03;;
69847;SDS011;57143;55.940;37.496;2022-12-11T10:47:05;11.18;;;3.55;;
69847;SDS011;57143;55.940;37.496;2022-12-11T10:49:35;17.98;;;6.55;;
69847;SDS011;57143;55.940;37.496;2022-12-11T10:52:08;15.52;;;5.68;;
69847;SDS011;57143;55.940;37.496;2022-12-11T10:54:37;12.63;;;5.10;;
69847;SDS011;57143;55.940;37.496;2022-12-11T10:57:07;16.15;;;5.82;;
69847;SDS011;57143;55.940;37.496;2022-12-11T10:59:39;17.67;;;5.97;;
69847;SDS011;57143;55.940;37.496;2022-12-11T11:02:16;15.20;;;5.88;;
69847;SDS011;57143;55.940;37.496;2022-12-11T11:04:48;10.68;;;4.05;;
69847;SDS011;57143;55.940;37.496;2022-12-11T11:07:18;11.23;;;4.13;;
69847;SDS011;57143;55.940;37.496;2022-12-11T11:09:48;12.98;;;4.30;;
69847;SDS011;57143;55.940;37.496;2022-12-11T11:12:18;16.70;;;5.90;;
69847;SDS011;57143;55.940;37.496;2022-12-11T11:14:57;13.13;;;4.63;;
69847;SDS011;57143;55.940;37.496;2022-12-11T11:17:25;13.45;;;5.07;;
69847;SDS011;57143;55.940;37.496;2022-12-11T11:19:53;12.57;;;4.13;;
69847;SDS011;57143;55.940;37.496;2022-12-11T11:22:22;16.48;;;4.68;;
69847;SDS011;57143;55.940;37.496;2022-12-11T11:24:51;13.25;;;4.68;;
69847;SDS011;57143;55.940;37.496;2022-12-11T11:27:25;15.55;;;5.03;;
69847;SDS011;57143;55.940;37.496;2022-12-11T11:29:56;14.25;;;4.72;;
69847;SDS011;57143;55.940;37.496;2022-12-11T11:32:30;11.77;;;4.53;;
69847;SDS011;57143;55.940;37.496;2022-12-11T11:35:13;13.85;;;5.07;;
69847;SDS011;57143;55.940;37.496;2022-12-11T11:37:44;12.68;;;4.75;;
69847;SDS011;57143;55.940;37.496;2022-12-11T11:40:14;14.00;;;4.70;;
69847;SDS011;57143;55.940;37.496;2022-12-11T11:42:46;15.48;;;5.30;;
69847;SDS011;57143;55.940;37.496;2022-12-11T11:45:19;15.63;;;4.70;;
69847;SDS011;57143;55.940;37.496;2022-12-11T11:47:53;19.35;;;6.38;;
69847;SDS011;57143;55.940;37.496;2022-12-11T11:50:28;18.67;;;5.85;;
69847;SDS011;57143;55.940;37.496;2022-12-11T11:53:01;12.68;;;5.10;;
69847;SDS011;57143;55.940;37.496;2022-12-11T11:55:36;13.77;;;6.10;;
69847;SDS011;57143;55.940;37.496;2022-12-11T11:58:13;13.97;;;5.50;;
69847;SDS011;57143;55.940;37.496;2022-12-11T12:00:43;13.88;;;5.05;;
69847;SDS011;57143;55.940;37.496;2022-12-11T12:03:11;15.25;;;5.85;;
69847;SDS011;57143;55.940;37.496;2022-12-11T12:05:43;15.60;;;6.07;;
69847;SDS011;57143;55.940;37.496;2022-12-11T12:08:16;17.08;;;5.85;;
69847;SDS011;57143;55.940;37.496;2022-12-11T12:10:53;13.20;;;5.00;;
69847;SDS011;57143;55.940;37.496;2022-12-11T12:13:31;12.65;;;4.43;;
69847;SDS011;57143;55.940;37.496;2022-12-11T12:16:07;16.33;;;6.25;;
69847;SDS011;57143;55.940;37.496;2022-12-11T12:18:44;13.38;;;5.53;;
69847;SDS011;57143;55.940;37.496;2022-12-11T12:21:22;15.13;;;5.88;;
69847;SDS011;57143;55.940;37.496;2022-12-11T12:24:01;16.77;;;6.77;;
69847;SDS011;57143;55.940;37.496;2022-12-11T12:26:38;15.13;;;5.75;;
69847;SDS011;57143;55.940;37.496;2022-12-11T12:29:14;17.25;;;7.43;;
69847;SDS011;57143;55.940;37.496;2022-12-11T12:31:59;14.02;;;5.65;;
69847;SDS011;57143;55.940;37.496;2022-12-11T12:34:40;20.02;;;6.65;;
69847;SDS011;57143;55.940;37.496;2022-12-11T12:37:25;19.27;;;7.03;;
69847;SDS011;57143;55.940;37.496;2022-12-11T12:40:13;20.33;;;8.60;;
69847;SDS011;57143;55.940;37.496;2022-12-11T12:42:51;18.52;;;7.55;;
69847;SDS011;57143;55.940;37.496;2022-12-11T12:45:31;20.63;;;6.93;;
69847;SDS011;57143;55.940;37.496;2022-12-11T12:48:03;16.88;;;6.03;;
69847;SDS011;57143;55.940;37.496;2022-12-11T12:50:36;18.87;;;7.60;;
69847;SDS011;57143;55.940;37.496;2022-12-11T12:53:06;18.00;;;7.10;;
69847;SDS011;57143;55.940;37.496;2022-12-11T12:55:38;19.67;;;6.47;;
69847;SDS011;57143;55.940;37.496;2022-12-11T12:58:21;18.38;;;6.60;;
69847;SDS011;57143;55.940;37.496;2022-12-11T13:00:55;23.27;;;9.13;;
69847;SDS011;57143;55.940;37.496;2022-12-11T13:03:34;21.30;;;7.47;;
69847;SDS011;57143;55.940;37.496;2022-12-11T13:06:26;16.40;;;5.95;;
69847;SDS011;57143;55.940;37.496;2022-12-11T13:09:08;15.95;;;6.97;;
69847;SDS011;57143;55.940;37.496;2022-12-11T13:11:39;19.15;;;7.00;;
69847;SDS011;57143;55.940;37.496;2022-12-11T13:14:07;17.70;;;6.95;;
69847;SDS011;57143;55.940;37.496;2022-12-11T13:17:03;18.93;;;7.23;;
69847;SDS011;57143;55.940;37.496;2022-12-11T13:19:34;13.93;;;5.70;;
69847;SDS011;57143;55.940;37.496;2022-12-11T13:22:02;17.88;;;6.28;;
69847;SDS011;57143;55.940;37.496;2022-12-11T13:24:46;17.67;;;6.57;;
69847;SDS011;57143;55.940;37.496;2022-12-11T13:27:21;14.00;;;5.47;;
69847;SDS011;57143;55.940;37.496;2022-12-11T13:29:49;16.33;;;6.20;;
69847;SDS011;57143;55.940;37.496;2022-12-11T13:32:22;13.40;;;5.05;;
69847;SDS011;57143;55.940;37.496;2022-12-11T13:34:56;15.93;;;6.90;;
69847;SDS011;57143;55.940;37.496;2022-12-11T13:37:29;17.92;;;7.15;;
69847;SDS011;57143;55.940;37.496;2022-12-11T13:39:59;14.20;;;6.03;;
69847;SDS011;57143;55.940;37.496;2022-12-11T13:42:30;14.13;;;5.40;;
69847;SDS011;57143;55.940;37.496;2022-12-11T13:44:59;16.83;;;5.82;;
69847;SDS011;57143;55.940;37.496;2022-12-11T13:47:30;12.57;;;4.82;;
69847;SDS011;57143;55.940;37.496;2022-12-11T13:50:00;13.98;;;6.03;;
69847;SDS011;57143;55.940;37.496;2022-12-11T13:52:39;12.27;;;5.32;;
69847;SDS011;57143;55.940;37.496;2022-12-11T13:55:15;15.77;;;4.90;;
69847;SDS011;57143;55.940;37.496;2022-12-11T13:57:46;17.08;;;6.60;;
69847;SDS011;57143;55.940;37.496;2022-12-11T14:00:18;15.93;;;5.25;;
69847;SDS011;57143;55.940;37.496;2022-12-11T14:02:49;14.77;;;4.97;;
69847;SDS011;57143;55.940;37.496;2022-12-11T14:05:18;15.38;;;6.15;;
69847;SDS011;57143;55.940;37.496;2022-12-11T14:07:46;12.13;;;4.43;;
69847;SDS011;57143;55.940;37.496;2022-12-11T14:10:15;11.32;;;4.70;;
69847;SDS011;57143;55.940;37.496;2022-12-11T14:12:46;14.15;;;5.60;;
69847;SDS011;57143;55.940;37.496;2022-12-11T14:15:17;14.57;;;5.05;;
69847;SDS011;57143;55.940;37.496;2022-12-11T14:17:44;13.68;;;4.93;;
69847;SDS011;57143;55.940;37.496;2022-12-11T14:20:16;17.03;;;6.53;;
69847;SDS011;57143;55.940;37.496;2022-12-11T14:22:45;16.33;;;5.90;;
69847;SDS011;57143;55.940;37.496;2022-12-11T14:25:17;14.73;;;4.93;;
69847;SDS011;57143;55.940;37.496;2022-12-11T14:27:48;15.43;;;5.97;;
69847;SDS011;57143;55.940;37.496;2022-12-11T14:30:20;15.35;;;5.55;;
69847;SDS011;57143;55.940;37.496;2022-12-11T14:32:49;16.33;;;5.57;;
69847;SDS011;57143;55.940;37.496;2022-12-11T14:35:23;13.52;;;5.88;;
69847;SDS011;57143;55.940;37.496;2022-12-11T14:37:53;14.75;;;6.05;;
69847;SDS011;57143;55.940;37.496;2022-12-11T14:40:23;16.60;;;4.88;;
69847;SDS011;57143;55.940;37.496;2022-12-11T14:42:54;17.63;;;5.10;;
69847;SDS011;57143;55.940;37.496;2022-12-11T14:45:29;14.77;;;5.27;;